TUL weather

Tulsa International Airport
Tulsa, Oklahoma, United States

Public forecast

Using degrees Fahrenheit for public forecast. Weather courtesy of forecast.io.

Current aviation weather report (METAR) for Tulsa International Airport

Retrieved 2020/01/24 10:29 UTC (0 seconds ago):

KTUL 241029Z 31014G20KT 10SM OVC016 02/M01 A3001 RMK AO2 T00171011

Aviation forecast (TAF) for Tulsa International Airport

Retrieved 2020/01/24 06:22 UTC (4 hours ago):

TAF KTUL 240520Z 2406/2506 30011KT P6SM BKN019 TEMPO 2406/2408 5SM -RA BR BKN015 FM240800 31010KT P6SM BKN015 FM241500 31012G19KT P6SM BKN025 FM242200 32008KT P6SM SCT250 FM250100 04003KT P6SM SCT250